Map

Track Data

SID SEASON NUMBER BASIN SUBBASIN NAME ISO_TIME NATURE LAT LON WMO_WIND WMO_PRES WMO_AGENCY TRACK_TYPE DIST2LAND LANDFALL IFLAG USA_AGENCY USA_ATCF_ID USA_LAT USA_LON USA_RECORD USA_STATUS USA_WIND USA_PRES USA_SSHS USA_R34_NE USA_R34_SE USA_R34_SW USA_R34_NW USA_R50_NE USA_R50_SE USA_R50_SW USA_R50_NW USA_R64_NE USA_R64_SE USA_R64_SW USA_R64_NW USA_POCI USA_ROCI USA_RMW USA_EYE TOKYO_LAT TOKYO_LON TOKYO_GRADE TOKYO_WIND TOKYO_PRES TOKYO_R50_DIR TOKYO_R50_LONG TOKYO_R50_SHORT TOKYO_R30_DIR TOKYO_R30_LONG TOKYO_R30_SHORT TOKYO_LAND CMA_LAT CMA_LON CMA_CAT CMA_WIND CMA_PRES HKO_LAT HKO_LON HKO_CAT HKO_WIND HKO_PRES NEWDELHI_LAT NEWDELHI_LON NEWDELHI_GRADE NEWDELHI_WIND NEWDELHI_PRES NEWDELHI_CI NEWDELHI_DP NEWDELHI_POCI REUNION_LAT REUNION_LON REUNION_TYPE REUNION_WIND REUNION_PRES REUNION_TNUM REUNION_CI REUNION_RMW REUNION_R34_NE REUNION_R34_SE REUNION_R34_SW REUNION_R34_NW REUNION_R50_NE REUNION_R50_SE REUNION_R50_SW REUNION_R50_NW REUNION_R64_NE REUNION_R64_SE REUNION_R64_SW REUNION_R64_NW BOM_LAT BOM_LON BOM_TYPE BOM_WIND BOM_PRES BOM_TNUM BOM_CI BOM_RMW BOM_R34_NE BOM_R34_SE BOM_R34_SW BOM_R34_NW BOM_R50_NE BOM_R50_SE BOM_R50_SW BOM_R50_NW BOM_R64_NE BOM_R64_SE BOM_R64_SW BOM_R64_NW BOM_ROCI BOM_POCI BOM_EYE BOM_POS_METHOD BOM_PRES_METHOD NADI_LAT NADI_LON NADI_CAT NADI_WIND NADI_PRES WELLINGTON_LAT WELLINGTON_LON WELLINGTON_WIND WELLINGTON_PRES DS824_LAT DS824_LON DS824_STAGE DS824_WIND DS824_PRES TD9636_LAT TD9636_LON TD9636_STAGE TD9636_WIND TD9636_PRES TD9635_LAT TD9635_LON TD9635_WIND TD9635_PRES TD9635_ROCI NEUMANN_LAT NEUMANN_LON NEUMANN_CLASS NEUMANN_WIND NEUMANN_PRES MLC_LAT MLC_LON MLC_CLASS MLC_WIND MLC_PRES USA_GUST BOM_GUST BOM_GUST_PER REUNION_GUST REUNION_GUST_PER USA_SEAHGT USA_SEARAD_NE USA_SEARAD_SE USA_SEARAD_SW USA_SEARAD_NW STORM_SPEED STORM_DIR
1958145N25280 1958 36 NA NA NOT_NAMED 1958-05-25 00:00:00 TS 25.0000 -80.5000 25 1003 hurdat_atl main 15 0 O_____________ hurdat_atl AL111958 25.0000 -80.5000 TD 25 1003 -1 16 51
1958145N25280 1958 36 NA NA NOT_NAMED 1958-05-25 03:00:00 TS 25.4985 -79.8166 main 45 45 P_____________ AL111958 25.4985 -79.8166 TD 25 1003 -1 15 47
1958145N25280 1958 36 NA NA NOT_NAMED 1958-05-25 06:00:00 TS 26.0000 -79.3000 25 1003 hurdat_atl main 79 79 O_____________ hurdat_atl AL111958 26.0000 -79.3000 TD 25 1003 -1 12 34
1958145N25280 1958 36 NA NA NOT_NAMED 1958-05-25 09:00:00 TS 26.5071 -79.0667 main 95 92 P_____________ AL111958 26.5071 -79.0667 TD 27 1003 -1 10 15
1958145N25280 1958 36 NA NA NOT_NAMED 1958-05-25 12:00:00 TS 27.0000 -79.0000 30 1003 hurdat_atl main 101 101 O_____________ hurdat_atl AL111958 27.0000 -79.0000 TD 30 1003 -1 10 7
1958145N25280 1958 36 NA NA NOT_NAMED 1958-05-25 15:00:00 TS 27.4800 -78.9348 main 131 131 P_____________ AL111958 27.4800 -78.9348 TD 32 1002 -1 9 5
1958145N25280 1958 36 NA NA NOT_NAMED 1958-05-25 18:00:00 TS 27.9000 -78.9000 35 1002 hurdat_atl main 148 148 O_____________ hurdat_atl AL111958 27.9000 -78.9000 TS 35 1002 0 7 3
1958145N25280 1958 36 NA NA NOT_NAMED 1958-05-25 21:00:00 TS 28.2149 -78.8871 main 159 156 P_____________ AL111958 28.2149 -78.8871 TS 35 0 6 8
1958145N25280 1958 36 NA NA NOT_NAMED 1958-05-26 00:00:00 TS 28.5000 -78.8000 35 hurdat_atl main 165 165 O_____________ hurdat_atl AL111958 28.5000 -78.8000 TS 35 0 7 26
1958145N25280 1958 36 NA NA NOT_NAMED 1958-05-26 03:00:00 TS 28.8200 -78.5523 main 188 188 P_____________ AL111958 28.8200 -78.5523 TS 35 0 9 37
1958145N25280 1958 36 NA NA NOT_NAMED 1958-05-26 06:00:00 TS 29.2000 -78.2000 35 hurdat_atl main 236 236 O_____________ hurdat_atl AL111958 29.2000 -78.2000 TS 35 0 10 36
1958145N25280 1958 36 NA NA NOT_NAMED 1958-05-26 09:00:00 TS 29.6545 -77.8589 main 285 285 P_____________ AL111958 29.6545 -77.8589 TS 35 0 12 35
1958145N25280 1958 36 NA NA NOT_NAMED 1958-05-26 12:00:00 TS 30.2000 -77.4000 35 1001 hurdat_atl main 354 346 O_____________ hurdat_atl AL111958 30.2000 -77.4000 TS 35 1001 0 15 39
1958145N25280 1958 36 NA NA NOT_NAMED 1958-05-26 15:00:00 TS 30.8119 -76.7888 main 346 326 P_____________ AL111958 30.8119 -76.7888 TS 35 0 18 43
1958145N25280 1958 36 NA NA NOT_NAMED 1958-05-26 18:00:00 TS 31.5000 -76.0000 35 hurdat_atl main 326 303 O_____________ hurdat_atl AL111958 31.5000 -76.0000 TS 35 0 21 46
1958145N25280 1958 36 NA NA NOT_NAMED 1958-05-26 21:00:00 TS 32.2352 -75.0447 main 311 289 P_____________ AL111958 32.2352 -75.0447 TS 37 0 23 48
1958145N25280 1958 36 NA NA NOT_NAMED 1958-05-27 00:00:00 TS 33.0000 -74.0000 40 hurdat_atl main 298 297 O_____________ hurdat_atl AL111958 33.0000 -74.0000 TS 40 0 23 49
1958145N25280 1958 36 NA NA NOT_NAMED 1958-05-27 03:00:00 TS 33.7650 -72.9623 main 317 317 P_____________ AL111958 33.7650 -72.9623 TS 42 0 22 48
1958145N25280 1958 36 NA NA NOT_NAMED 1958-05-27 06:00:00 TS 34.5000 -72.0000 45 hurdat_atl main 348 348 O_____________ hurdat_atl AL111958 34.5000 -72.0000 TS 45 0 21 47
1958145N25280 1958 36 NA NA NOT_NAMED 1958-05-27 09:00:00 TS 35.1722 -71.1370 main 402 402 P_____________ AL111958 35.1722 -71.1370 TS 47 0 18 43
1958145N25280 1958 36 NA NA NOT_NAMED 1958-05-27 12:00:00 TS 35.8000 -70.5000 50 hurdat_atl main 449 449 O_____________ hurdat_atl AL111958 35.8000 -70.5000 TS 50 0 15 32
1958145N25280 1958 36 NA NA NOT_NAMED 1958-05-27 15:00:00 TS 36.4216 -70.1729 main 479 466 P_____________ AL111958 36.4216 -70.1729 TS 50 0 13 19
1958145N25280 1958 36 NA NA NOT_NAMED 1958-05-27 18:00:00 ET 37.0000 -70.0000 50 hurdat_atl main 466 439 O_____________ hurdat_atl AL111958 37.0000 -70.0000 EX 50 -4 12 16
1958145N25280 1958 36 NA NA NOT_NAMED 1958-05-27 21:00:00 ET 37.5296 -69.7865 main 439 402 P_____________ AL111958 37.5296 -69.7865 EX 50 -4 11 22
1958145N25280 1958 36 NA NA NOT_NAMED 1958-05-28 00:00:00 ET 38.0000 -69.5000 50 hurdat_atl main 402 370 O_____________ hurdat_atl AL111958 38.0000 -69.5000 EX 50 -4 10 32
1958145N25280 1958 36 NA NA NOT_NAMED 1958-05-28 03:00:00 ET 38.4146 -69.0742 main 370 343 P_____________ AL111958 38.4146 -69.0742 EX 52 -4 11 44
1958145N25280 1958 36 NA NA NOT_NAMED 1958-05-28 06:00:00 ET 38.8000 -68.5000 55 hurdat_atl main 346 334 O_____________ hurdat_atl AL111958 38.8000 -68.5000 EX 55 -4 12 53
1958145N25280 1958 36 NA NA NOT_NAMED 1958-05-28 09:00:00 ET 39.1544 -67.8222 main 334 333 P_____________ AL111958 39.1544 -67.8222 EX 52 -4 14 55
1958145N25280 1958 36 NA NA NOT_NAMED 1958-05-28 12:00:00 ET 39.6000 -67.0000 50 hurdat_atl main 343 342 O_____________ hurdat_atl AL111958 39.6000 -67.0000 EX 50 -4 18 54
1958145N25280 1958 36 NA NA NOT_NAMED 1958-05-28 15:00:00 ET 40.2122 -65.9283 main 367 279 P_____________ AL111958 40.2122 -65.9283 EX 47 -4 21 47
1958145N25280 1958 36 NA NA NOT_NAMED 1958-05-28 18:00:00 ET 41.0000 -65.0000 45 hurdat_atl main 279 186 O_____________ hurdat_atl AL111958 41.0000 -65.0000 EX 45 -4 20 31
1958145N25280 1958 36 NA NA NOT_NAMED 1958-05-28 21:00:00 ET 41.9535 -64.5619 main 176 92 P_____________ AL111958 41.9535 -64.5619 EX 42 -4 20 10
1958145N25280 1958 36 NA NA NOT_NAMED 1958-05-29 00:00:00 ET 43.0000 -64.5000 40 hurdat_atl main 85 0 O_____________ hurdat_atl AL111958 43.0000 -64.5000 EX 40 -4 21 358
1958145N25280 1958 36 NA NA NOT_NAMED 1958-05-29 03:00:00 ET 44.0158 -64.6849 main 0 0 P_____________ AL111958 44.0158 -64.6849 EX 37 -4 20 350
1958145N25280 1958 36 NA NA NOT_NAMED 1958-05-29 06:00:00 ET 45.0000 -65.0000 35 hurdat_atl main 0 O_____________ hurdat_atl AL111958 45.0000 -65.0000 EX 35 -4 20 347

About IBTrACS Database

This database is a web-friendly format of International Best Track Archive for Climate Stewardship (IBTrACS), a global best track data archive curated by NOAA dating back to 1842.

Updated: 2021-11-26